sensor_id;sensor_type;location;lat;lon;timestamp;pressure;altitude;pressure_sealevel;temperature;humidity
71361;BME280;59166;48.908;1.870;2022-10-31T00:02:40;100753.81;;;12.81;96.78
71361;BME280;59166;48.908;1.870;2022-10-31T00:07:41;100748.94;;;12.78;96.85
71361;BME280;59166;48.908;1.870;2022-10-31T00:12:44;100753.81;;;12.76;96.82
71361;BME280;59166;48.908;1.870;2022-10-31T00:17:45;100745.38;;;12.73;96.41
71361;BME280;59166;48.908;1.870;2022-10-31T00:22:46;100754.84;;;12.70;97.12
71361;BME280;59166;48.908;1.870;2022-10-31T00:27:48;100761.09;;;12.71;97.91
71361;BME280;59166;48.908;1.870;2022-10-31T00:32:49;100754.84;;;12.70;97.86
71361;BME280;59166;48.908;1.870;2022-10-31T00:37:50;100761.66;;;12.73;98.13
71361;BME280;59166;48.908;1.870;2022-10-31T00:42:53;100750.28;;;12.76;98.11
71361;BME280;59166;48.908;1.870;2022-10-31T00:47:54;100740.81;;;12.78;99.16
71361;BME280;59166;48.908;1.870;2022-10-31T00:52:55;100739.72;;;12.79;100.00
71361;BME280;59166;48.908;1.870;2022-10-31T00:57:57;100733.19;;;12.75;99.77
71361;BME280;59166;48.908;1.870;2022-10-31T01:02:58;100730.19;;;12.77;98.79
71361;BME280;59166;48.908;1.870;2022-10-31T01:07:59;100726.13;;;12.74;98.85
71361;BME280;59166;48.908;1.870;2022-10-31T01:13:02;100712.84;;;12.73;99.17
71361;BME280;59166;48.908;1.870;2022-10-31T01:18:02;100717.19;;;12.69;99.32
71361;BME280;59166;48.908;1.870;2022-10-31T01:23:03;100714.72;;;12.67;99.42
71361;BME280;59166;48.908;1.870;2022-10-31T01:28:06;100718.78;;;12.65;99.76
71361;BME280;59166;48.908;1.870;2022-10-31T01:33:06;100708.22;;;12.68;99.91
71361;BME280;59166;48.908;1.870;2022-10-31T01:38:07;100697.91;;;12.65;100.00
71361;BME280;59166;48.908;1.870;2022-10-31T01:43:12;100700.38;;;12.77;100.00
71361;BME280;59166;48.908;1.870;2022-10-31T01:48:15;100694.19;;;12.81;99.47
71361;BME280;59166;48.908;1.870;2022-10-31T01:53:17;100686.81;;;12.77;98.23
71361;BME280;59166;48.908;1.870;2022-10-31T01:58:24;100679.78;;;12.76;98.78
71361;BME280;59166;48.908;1.870;2022-10-31T02:03:45;100684.38;;;12.70;98.87
71361;BME280;59166;48.908;1.870;2022-10-31T02:08:47;100679.22;;;12.69;99.19
71361;BME280;59166;48.908;1.870;2022-10-31T02:13:49;100679.75;;;12.66;99.30
71361;BME280;59166;48.908;1.870;2022-10-31T02:18:50;100674.06;;;12.62;99.27
71361;BME280;59166;48.908;1.870;2022-10-31T02:24:17;100675.94;;;12.62;99.77
71361;BME280;59166;48.908;1.870;2022-10-31T02:30:03;100670.47;;;12.57;99.39
71361;BME280;59166;48.908;1.870;2022-10-31T02:35:33;100672.84;;;12.43;99.53
71361;BME280;59166;48.908;1.870;2022-10-31T02:40:46;100670.13;;;12.38;99.58
71361;BME280;59166;48.908;1.870;2022-10-31T02:45:53;100661.47;;;12.36;100.00
71361;BME280;59166;48.908;1.870;2022-10-31T02:51:11;100655.19;;;12.30;100.00
71361;BME280;59166;48.908;1.870;2022-10-31T02:56:15;100642.91;;;12.23;100.00
71361;BME280;59166;48.908;1.870;2022-10-31T03:01:43;100638.56;;;12.17;100.00
71361;BME280;59166;48.908;1.870;2022-10-31T03:07:08;100628.25;;;12.09;100.00
71361;BME280;59166;48.908;1.870;2022-10-31T03:12:14;100635.53;;;12.08;100.00
71361;BME280;59166;48.908;1.870;2022-10-31T03:17:23;100623.91;;;12.13;100.00
71361;BME280;59166;48.908;1.870;2022-10-31T03:22:29;100614.72;;;12.14;100.00
71361;BME280;59166;48.908;1.870;2022-10-31T03:27:34;100602.81;;;12.15;100.00
71361;BME280;59166;48.908;1.870;2022-10-31T03:32:39;100592.03;;;12.25;100.00
71361;BME280;59166;48.908;1.870;2022-10-31T03:37:44;100579.91;;;12.32;100.00
71361;BME280;59166;48.908;1.870;2022-10-31T03:42:53;100563.38;;;12.34;100.00
71361;BME280;59166;48.908;1.870;2022-10-31T03:47:56;100569.00;;;12.27;100.00
71361;BME280;59166;48.908;1.870;2022-10-31T03:53:06;100566.81;;;12.24;100.00
71361;BME280;59166;48.908;1.870;2022-10-31T03:58:11;100561.91;;;12.11;100.00
71361;BME280;59166;48.908;1.870;2022-10-31T04:03:18;100566.50;;;12.16;100.00
71361;BME280;59166;48.908;1.870;2022-10-31T04:08:26;100576.00;;;12.18;100.00
71361;BME280;59166;48.908;1.870;2022-10-31T04:13:31;100579.25;;;12.15;100.00
71361;BME280;59166;48.908;1.870;2022-10-31T04:18:33;100574.38;;;12.17;100.00
71361;BME280;59166;48.908;1.870;2022-10-31T04:23:36;100565.44;;;12.12;100.00
71361;BME280;59166;48.908;1.870;2022-10-31T04:28:37;100564.59;;;12.11;100.00
71361;BME280;59166;48.908;1.870;2022-10-31T04:33:38;100568.66;;;12.09;100.00
71361;BME280;59166;48.908;1.870;2022-10-31T04:38:41;100574.09;;;12.14;100.00
71361;BME280;59166;48.908;1.870;2022-10-31T04:43:42;100570.03;;;12.16;100.00
71361;BME280;59166;48.908;1.870;2022-10-31T04:48:43;100557.31;;;12.12;100.00
71361;BME280;59166;48.908;1.870;2022-10-31T04:53:46;100557.84;;;12.14;100.00
71361;BME280;59166;48.908;1.870;2022-10-31T04:58:47;100554.06;;;12.20;100.00
71361;BME280;59166;48.908;1.870;2022-10-31T05:03:48;100550.56;;;12.29;100.00
71361;BME280;59166;48.908;1.870;2022-10-31T05:08:51;100554.09;;;12.25;100.00
71361;BME280;59166;48.908;1.870;2022-10-31T05:13:52;100537.03;;;12.24;100.00
71361;BME280;59166;48.908;1.870;2022-10-31T05:18:53;100529.72;;;12.30;100.00
71361;BME280;59166;48.908;1.870;2022-10-31T05:23:55;100517.59;;;12.32;100.00
71361;BME280;59166;48.908;1.870;2022-10-31T05:28:56;100496.47;;;12.39;100.00
71361;BME280;59166;48.908;1.870;2022-10-31T05:33:57;100485.66;;;12.55;100.00
71361;BME280;59166;48.908;1.870;2022-10-31T05:38:59;100486.75;;;12.74;100.00
71361;BME280;59166;48.908;1.870;2022-10-31T05:44:00;100479.19;;;12.76;100.00
71361;BME280;59166;48.908;1.870;2022-10-31T05:49:01;100471.06;;;12.66;100.00
71361;BME280;59166;48.908;1.870;2022-10-31T05:54:03;100472.69;;;12.62;100.00
71361;BME280;59166;48.908;1.870;2022-10-31T05:59:04;100483.50;;;12.62;100.00
71361;BME280;59166;48.908;1.870;2022-10-31T06:04:05;100484.06;;;12.59;100.00
71361;BME280;59166;48.908;1.870;2022-10-31T06:09:07;100481.59;;;12.57;100.00
71361;BME280;59166;48.908;1.870;2022-10-31T06:14:08;100480.53;;;12.58;100.00
71361;BME280;59166;48.908;1.870;2022-10-31T06:19:09;100478.63;;;12.59;100.00
71361;BME280;59166;48.908;1.870;2022-10-31T06:24:11;100471.84;;;12.61;100.00
71361;BME280;59166;48.908;1.870;2022-10-31T06:29:12;100484.06;;;12.69;100.00
71361;BME280;59166;48.908;1.870;2022-10-31T06:34:13;100477.00;;;12.78;100.00
71361;BME280;59166;48.908;1.870;2022-10-31T06:39:15;100471.88;;;12.76;100.00
71361;BME280;59166;48.908;1.870;2022-10-31T06:44:16;100462.66;;;12.72;100.00
71361;BME280;59166;48.908;1.870;2022-10-31T06:49:17;100458.84;;;12.78;100.00
71361;BME280;59166;48.908;1.870;2022-10-31T06:54:20;100462.63;;;12.98;100.00
71361;BME280;59166;48.908;1.870;2022-10-31T06:59:20;100446.91;;;12.84;100.00
71361;BME280;59166;48.908;1.870;2022-10-31T07:04:21;100445.03;;;12.70;100.00
71361;BME280;59166;48.908;1.870;2022-10-31T07:09:23;100429.84;;;12.59;100.00
71361;BME280;59166;48.908;1.870;2022-10-31T07:14:24;100430.41;;;12.56;100.00
71361;BME280;59166;48.908;1.870;2022-10-31T07:19:25;100422.28;;;12.56;100.00
71361;BME280;59166;48.908;1.870;2022-10-31T07:24:27;100426.03;;;12.60;100.00
71361;BME280;59166;48.908;1.870;2022-10-31T07:29:28;100434.72;;;12.62;100.00
71361;BME280;59166;48.908;1.870;2022-10-31T07:34:29;100436.63;;;12.61;100.00
71361;BME280;59166;48.908;1.870;2022-10-31T07:39:31;100440.69;;;12.69;100.00
71361;BME280;59166;48.908;1.870;2022-10-31T07:44:32;100432.53;;;12.84;100.00
71361;BME280;59166;48.908;1.870;2022-10-31T07:49:33;100424.41;;;12.99;100.00
71361;BME280;59166;48.908;1.870;2022-10-31T07:54:36;100421.66;;;13.14;100.00
71361;BME280;59166;48.908;1.870;2022-10-31T07:59:37;100404.81;;;13.27;100.00
71361;BME280;59166;48.908;1.870;2022-10-31T08:04:38;100403.16;;;13.41;100.00
71361;BME280;59166;48.908;1.870;2022-10-31T08:09:40;100396.59;;;13.58;100.00
71361;BME280;59166;48.908;1.870;2022-10-31T08:14:41;100384.63;;;13.74;100.00
71361;BME280;59166;48.908;1.870;2022-10-31T08:19:42;100400.03;;;13.83;100.00
71361;BME280;59166;48.908;1.870;2022-10-31T08:24:45;100392.09;;;13.97;100.00
71361;BME280;59166;48.908;1.870;2022-10-31T08:29:45;100376.28;;;14.04;100.00
71361;BME280;59166;48.908;1.870;2022-10-31T08:34:46;100367.84;;;14.06;100.00
71361;BME280;59166;48.908;1.870;2022-10-31T08:39:48;100369.16;;;14.18;100.00
71361;BME280;59166;48.908;1.870;2022-10-31T08:44:50;100351.31;;;14.36;99.41
71361;BME280;59166;48.908;1.870;2022-10-31T08:49:50;100349.81;;;14.54;98.93
71361;BME280;59166;48.908;1.870;2022-10-31T08:54:53;100345.19;;;14.83;96.76
71361;BME280;59166;48.908;1.870;2022-10-31T08:59:54;100340.97;;;15.01;97.05
71361;BME280;59166;48.908;1.870;2022-10-31T09:04:55;100334.38;;;15.30;94.20
71361;BME280;59166;48.908;1.870;2022-10-31T09:09:57;100329.66;;;15.60;92.29
71361;BME280;59166;48.908;1.870;2022-10-31T09:14:58;100317.88;;;15.83;91.58
71361;BME280;59166;48.908;1.870;2022-10-31T09:19:59;100304.78;;;16.04;91.41
71361;BME280;59166;48.908;1.870;2022-10-31T09:25:01;100295.00;;;16.21;89.67
71361;BME280;59166;48.908;1.870;2022-10-31T09:30:02;100280.97;;;16.28;89.81
71361;BME280;59166;48.908;1.870;2022-10-31T09:35:03;100271.38;;;16.30;90.21
71361;BME280;59166;48.908;1.870;2022-10-31T09:40:07;100244.97;;;16.44;89.27
71361;BME280;59166;48.908;1.870;2022-10-31T09:45:13;100245.78;;;16.59;88.06
71361;BME280;59166;48.908;1.870;2022-10-31T09:50:19;100236.91;;;16.67;87.21
71361;BME280;59166;48.908;1.870;2022-10-31T09:55:30;100233.38;;;16.80;87.82
71361;BME280;59166;48.908;1.870;2022-10-31T10:00:32;100220.53;;;16.94;86.89
71361;BME280;59166;48.908;1.870;2022-10-31T10:05:45;100213.47;;;16.93;86.34
71361;BME280;59166;48.908;1.870;2022-10-31T10:10:51;100198.09;;;16.70;87.21
71361;BME280;59166;48.908;1.870;2022-10-31T10:16:05;100189.03;;;16.88;86.57
71361;BME280;59166;48.908;1.870;2022-10-31T10:21:27;100189.91;;;16.97;85.62
71361;BME280;59166;48.908;1.870;2022-10-31T10:26:37;100190.81;;;16.92;85.47
71361;BME280;59166;48.908;1.870;2022-10-31T10:31:42;100195.34;;;17.11;85.69
71361;BME280;59166;48.908;1.870;2022-10-31T10:36:47;100178.78;;;17.21;83.65
71361;BME280;59166;48.908;1.870;2022-10-31T10:41:52;100158.72;;;17.61;82.92
71361;BME280;59166;48.908;1.870;2022-10-31T10:46:57;100151.72;;;18.22;81.13
71361;BME280;59166;48.908;1.870;2022-10-31T10:52:02;100138.50;;;18.55;78.20
71361;BME280;59166;48.908;1.870;2022-10-31T11:02:31;100120.84;;;18.61;75.08
71361;BME280;59166;48.908;1.870;2022-10-31T11:07:39;100112.97;;;18.76;73.67
71361;BME280;59166;48.908;1.870;2022-10-31T11:12:43;100099.78;;;18.95;73.78
71361;BME280;59166;48.908;1.870;2022-10-31T11:17:48;100083.72;;;19.20;73.14
71361;BME280;59166;48.908;1.870;2022-10-31T11:22:49;100067.47;;;19.23;72.79
71361;BME280;59166;48.908;1.870;2022-10-31T11:28:04;100076.94;;;19.26;72.43
71361;BME280;59166;48.908;1.870;2022-10-31T11:33:05;100068.75;;;19.34;70.94
71361;BME280;59166;48.908;1.870;2022-10-31T11:38:06;100064.88;;;19.35;71.60
71361;BME280;59166;48.908;1.870;2022-10-31T11:43:16;100053.59;;;19.37;71.35
71361;BME280;59166;48.908;1.870;2022-10-31T11:48:20;100038.47;;;19.31;71.55
71361;BME280;59166;48.908;1.870;2022-10-31T11:53:26;100041.34;;;19.26;73.41
71361;BME280;59166;48.908;1.870;2022-10-31T11:58:29;100044.91;;;19.26;72.88
71361;BME280;59166;48.908;1.870;2022-10-31T12:03:40;100030.72;;;19.24;72.15
71361;BME280;59166;48.908;1.870;2022-10-31T12:08:42;100038.16;;;19.15;70.88
71361;BME280;59166;48.908;1.870;2022-10-31T12:13:56;100041.66;;;19.07;72.90
71361;BME280;59166;48.908;1.870;2022-10-31T12:19:03;100027.50;;;19.05;74.95
71361;BME280;59166;48.908;1.870;2022-10-31T12:24:16;100019.97;;;19.11;75.07
71361;BME280;59166;48.908;1.870;2022-10-31T12:29:34;99999.34;;;19.13;74.62
71361;BME280;59166;48.908;1.870;2022-10-31T12:34:54;99971.94;;;19.13;74.19
71361;BME280;59166;48.908;1.870;2022-10-31T12:40:09;99968.22;;;19.26;74.60
71361;BME280;59166;48.908;1.870;2022-10-31T12:45:32;99948.19;;;19.43;74.17
71361;BME280;59166;48.908;1.870;2022-10-31T12:50:45;99939.44;;;19.49;73.94
71361;BME280;59166;48.908;1.870;2022-10-31T12:55:57;99938.72;;;19.70;72.71
71361;BME280;59166;48.908;1.870;2022-10-31T13:01:08;99939.69;;;19.74;71.30
71361;BME280;59166;48.908;1.870;2022-10-31T13:06:17;99918.78;;;19.61;72.63
71361;BME280;59166;48.908;1.870;2022-10-31T13:11:22;99907.53;;;19.54;74.13
71361;BME280;59166;48.908;1.870;2022-10-31T13:16:46;99902.53;;;19.56;73.85
71361;BME280;59166;48.908;1.870;2022-10-31T13:21:55;99906.47;;;19.37;74.18
71361;BME280;59166;48.908;1.870;2022-10-31T13:27:12;99888.03;;;19.17;75.02
71361;BME280;59166;48.908;1.870;2022-10-31T13:32:19;99870.28;;;19.23;76.37
71361;BME280;59166;48.908;1.870;2022-10-31T13:37:27;99856.88;;;19.60;75.98
71361;BME280;59166;48.908;1.870;2022-10-31T13:42:41;99861.75;;;19.54;74.44
71361;BME280;59166;48.908;1.870;2022-10-31T13:47:57;99846.59;;;19.57;75.11
71361;BME280;59166;48.908;1.870;2022-10-31T13:53:13;99824.22;;;19.55;75.70
71361;BME280;59166;48.908;1.870;2022-10-31T13:58:25;99813.78;;;19.48;75.19
71361;BME280;59166;48.908;1.870;2022-10-31T14:03:29;99815.28;;;19.37;76.12
71361;BME280;59166;48.908;1.870;2022-10-31T14:08:34;99804.31;;;19.37;76.58
71361;BME280;59166;48.908;1.870;2022-10-31T14:13:38;99796.44;;;19.35;76.74
71361;BME280;59166;48.908;1.870;2022-10-31T14:18:48;99793.19;;;19.42;76.17
71361;BME280;59166;48.908;1.870;2022-10-31T14:23:51;99790.63;;;19.37;76.54
71361;BME280;59166;48.908;1.870;2022-10-31T14:28:54;99782.94;;;19.30;76.96
71361;BME280;59166;48.908;1.870;2022-10-31T14:33:56;99778.91;;;19.28;77.39
71361;BME280;59166;48.908;1.870;2022-10-31T14:39:02;99775.84;;;19.29;77.36
71361;BME280;59166;48.908;1.870;2022-10-31T14:44:38;99781.97;;;19.26;77.97
71361;BME280;59166;48.908;1.870;2022-10-31T14:50:15;99785.38;;;19.23;78.00
71361;BME280;59166;48.908;1.870;2022-10-31T14:55:21;99790.41;;;19.21;78.16
71361;BME280;59166;48.908;1.870;2022-10-31T15:00:23;99784.94;;;19.13;78.92
71361;BME280;59166;48.908;1.870;2022-10-31T15:05:28;99781.22;;;19.17;78.72
71361;BME280;59166;48.908;1.870;2022-10-31T15:10:31;99759.97;;;19.14;78.81
71361;BME280;59166;48.908;1.870;2022-10-31T15:15:32;99756.44;;;19.14;78.72
71361;BME280;59166;48.908;1.870;2022-10-31T15:20:42;99749.69;;;19.11;79.02
71361;BME280;59166;48.908;1.870;2022-10-31T15:25:43;99753.72;;;19.05;78.64
71361;BME280;59166;48.908;1.870;2022-10-31T15:30:53;99740.81;;;19.06;78.15
71361;BME280;59166;48.908;1.870;2022-10-31T15:35:57;99731.03;;;18.96;78.80
71361;BME280;59166;48.908;1.870;2022-10-31T15:41:01;99716.25;;;18.88;79.45
71361;BME280;59166;48.908;1.870;2022-10-31T15:46:06;99701.97;;;18.83;78.92
71361;BME280;59166;48.908;1.870;2022-10-31T15:51:09;99701.03;;;18.79;79.20
71361;BME280;59166;48.908;1.870;2022-10-31T15:56:12;99684.81;;;18.74;79.04
71361;BME280;59166;48.908;1.870;2022-10-31T16:01:21;99676.59;;;18.74;78.87
71361;BME280;59166;48.908;1.870;2022-10-31T16:06:24;99670.78;;;18.75;78.57
71361;BME280;59166;48.908;1.870;2022-10-31T16:11:32;99674.66;;;18.74;78.71
71361;BME280;59166;48.908;1.870;2022-10-31T16:16:39;99661.00;;;18.66;78.69
71361;BME280;59166;48.908;1.870;2022-10-31T16:21:43;99653.16;;;18.64;78.52
71361;BME280;59166;48.908;1.870;2022-10-31T16:26:48;99642.97;;;18.65;78.54
71361;BME280;59166;48.908;1.870;2022-10-31T16:31:49;99636.25;;;18.62;78.49
71361;BME280;59166;48.908;1.870;2022-10-31T16:36:51;99630.31;;;18.60;78.25
71361;BME280;59166;48.908;1.870;2022-10-31T16:41:55;99632.03;;;18.65;77.79
71361;BME280;59166;48.908;1.870;2022-10-31T16:47:13;99633.19;;;18.64;77.68
71361;BME280;59166;48.908;1.870;2022-10-31T16:52:17;99630.91;;;18.66;78.14
71361;BME280;59166;48.908;1.870;2022-10-31T16:57:21;99649.47;;;18.52;81.97
71361;BME280;59166;48.908;1.870;2022-10-31T17:02:24;99688.84;;;18.21;86.68
71361;BME280;59166;48.908;1.870;2022-10-31T17:07:27;99696.94;;;17.83;89.90
71361;BME280;59166;48.908;1.870;2022-10-31T17:12:28;99736.13;;;17.44;94.75
71361;BME280;59166;48.908;1.870;2022-10-31T17:17:29;99741.97;;;17.12;98.19
71361;BME280;59166;48.908;1.870;2022-10-31T17:22:31;99746.56;;;16.94;100.00
71361;BME280;59166;48.908;1.870;2022-10-31T17:27:32;99740.75;;;16.87;100.00
71361;BME280;59166;48.908;1.870;2022-10-31T17:32:32;99735.13;;;16.84;100.00
71361;BME280;59166;48.908;1.870;2022-10-31T17:37:35;99742.16;;;16.76;100.00
71361;BME280;59166;48.908;1.870;2022-10-31T17:42:36;99740.06;;;16.73;100.00
71361;BME280;59166;48.908;1.870;2022-10-31T17:47:37;99727.69;;;16.67;100.00
71361;BME280;59166;48.908;1.870;2022-10-31T17:52:39;99714.84;;;16.68;100.00
71361;BME280;59166;48.908;1.870;2022-10-31T17:57:42;99710.03;;;16.65;100.00
71361;BME280;59166;48.908;1.870;2022-10-31T18:02:43;99711.25;;;16.59;100.00
71361;BME280;59166;48.908;1.870;2022-10-31T18:07:48;99701.50;;;16.58;100.00
71361;BME280;59166;48.908;1.870;2022-10-31T18:12:49;99706.09;;;16.49;100.00
71361;BME280;59166;48.908;1.870;2022-10-31T18:17:50;99701.78;;;16.48;100.00
71361;BME280;59166;48.908;1.870;2022-10-31T18:22:53;99706.72;;;16.45;100.00
71361;BME280;59166;48.908;1.870;2022-10-31T18:27:54;99677.22;;;16.48;100.00
71361;BME280;59166;48.908;1.870;2022-10-31T18:32:56;99663.72;;;16.42;100.00
71361;BME280;59166;48.908;1.870;2022-10-31T18:38:00;99650.25;;;16.37;100.00
71361;BME280;59166;48.908;1.870;2022-10-31T18:43:02;99643.63;;;16.30;100.00
71361;BME280;59166;48.908;1.870;2022-10-31T18:48:06;99637.88;;;16.31;100.00
71361;BME280;59166;48.908;1.870;2022-10-31T18:53:09;99633.34;;;16.27;100.00
71361;BME280;59166;48.908;1.870;2022-10-31T18:58:10;99616.81;;;16.23;100.00
71361;BME280;59166;48.908;1.870;2022-10-31T19:03:11;99617.63;;;16.24;100.00
71361;BME280;59166;48.908;1.870;2022-10-31T19:08:14;99619.41;;;16.28;100.00
71361;BME280;59166;48.908;1.870;2022-10-31T19:13:15;99609.94;;;16.26;100.00
71361;BME280;59166;48.908;1.870;2022-10-31T19:18:16;99614.91;;;16.24;100.00
71361;BME280;59166;48.908;1.870;2022-10-31T19:23:19;99606.56;;;16.20;100.00
71361;BME280;59166;48.908;1.870;2022-10-31T19:28:20;99603.84;;;16.20;100.00
71361;BME280;59166;48.908;1.870;2022-10-31T19:33:21;99612.00;;;16.20;100.00
71361;BME280;59166;48.908;1.870;2022-10-31T19:38:24;99607.66;;;16.19;100.00
71361;BME280;59166;48.908;1.870;2022-10-31T19:43:25;99608.94;;;16.22;100.00
71361;BME280;59166;48.908;1.870;2022-10-31T19:48:27;99605.75;;;16.20;100.00
71361;BME280;59166;48.908;1.870;2022-10-31T19:53:30;99611.03;;;16.16;100.00
71361;BME280;59166;48.908;1.870;2022-10-31T19:58:34;99607.81;;;16.14;100.00
71361;BME280;59166;48.908;1.870;2022-10-31T20:03:36;99612.28;;;16.10;100.00
71361;BME280;59166;48.908;1.870;2022-10-31T20:08:39;99604.59;;;16.12;100.00
71361;BME280;59166;48.908;1.870;2022-10-31T20:13:40;99613.94;;;16.20;100.00
71361;BME280;59166;48.908;1.870;2022-10-31T20:18:41;99595.47;;;16.17;100.00
71361;BME280;59166;48.908;1.870;2022-10-31T20:23:44;99588.91;;;16.18;100.00
71361;BME280;59166;48.908;1.870;2022-10-31T20:28:48;99577.50;;;16.16;100.00
71361;BME280;59166;48.908;1.870;2022-10-31T20:33:49;99578.63;;;16.15;100.00
71361;BME280;59166;48.908;1.870;2022-10-31T20:38:52;99571.25;;;16.15;100.00
71361;BME280;59166;48.908;1.870;2022-10-31T20:43:53;99578.78;;;16.18;100.00
71361;BME280;59166;48.908;1.870;2022-10-31T20:48:54;99583.28;;;16.14;100.00
71361;BME280;59166;48.908;1.870;2022-10-31T20:53:57;99600.41;;;16.15;100.00
71361;BME280;59166;48.908;1.870;2022-10-31T20:58:59;99597.88;;;16.18;100.00
71361;BME280;59166;48.908;1.870;2022-10-31T21:04:04;99603.31;;;16.18;99.45
71361;BME280;59166;48.908;1.870;2022-10-31T21:09:14;99611.69;;;16.22;99.46
71361;BME280;59166;48.908;1.870;2022-10-31T21:14:20;99630.75;;;16.22;98.77
71361;BME280;59166;48.908;1.870;2022-10-31T21:19:21;99629.97;;;16.21;98.66
71361;BME280;59166;48.908;1.870;2022-10-31T21:24:23;99623.91;;;16.33;97.68
71361;BME280;59166;48.908;1.870;2022-10-31T21:29:24;99623.97;;;16.41;97.25
71361;BME280;59166;48.908;1.870;2022-10-31T21:34:25;99644.97;;;16.41;97.63
71361;BME280;59166;48.908;1.870;2022-10-31T21:39:27;99636.63;;;16.46;96.66
71361;BME280;59166;48.908;1.870;2022-10-31T21:44:28;99653.97;;;16.50;95.80
71361;BME280;59166;48.908;1.870;2022-10-31T21:49:29;99664.06;;;16.50;96.45
71361;BME280;59166;48.908;1.870;2022-10-31T21:54:31;99684.91;;;16.45;96.54
71361;BME280;59166;48.908;1.870;2022-10-31T21:59:32;99686.69;;;16.50;96.39
71361;BME280;59166;48.908;1.870;2022-10-31T22:04:33;99702.88;;;16.47;96.41
71361;BME280;59166;48.908;1.870;2022-10-31T22:09:35;99725.69;;;16.51;95.90
71361;BME280;59166;48.908;1.870;2022-10-31T22:14:36;99728.06;;;16.52;95.50
71361;BME280;59166;48.908;1.870;2022-10-31T22:19:37;99720.50;;;16.40;90.83
71361;BME280;59166;48.908;1.870;2022-10-31T22:24:39;99744.78;;;16.28;89.16
71361;BME280;59166;48.908;1.870;2022-10-31T22:29:40;99752.44;;;16.18;89.76
71361;BME280;59166;48.908;1.870;2022-10-31T22:34:41;99755.44;;;16.16;88.79
71361;BME280;59166;48.908;1.870;2022-10-31T22:39:43;99760.94;;;16.25;87.49
71361;BME280;59166;48.908;1.870;2022-10-31T22:44:44;99767.34;;;16.20;88.46
71361;BME280;59166;48.908;1.870;2022-10-31T22:49:46;99773.03;;;16.10;88.83
71361;BME280;59166;48.908;1.870;2022-10-31T22:54:48;99768.91;;;15.99;89.62
71361;BME280;59166;48.908;1.870;2022-10-31T22:59:49;99779.63;;;15.95;89.97
71361;BME280;59166;48.908;1.870;2022-10-31T23:04:50;99794.66;;;15.93;89.67
71361;BME280;59166;48.908;1.870;2022-10-31T23:09:52;99809.09;;;15.93;89.49
71361;BME280;59166;48.908;1.870;2022-10-31T23:14:53;99817.50;;;15.83;89.92
71361;BME280;59166;48.908;1.870;2022-10-31T23:19:53;99829.13;;;15.75;88.30
71361;BME280;59166;48.908;1.870;2022-10-31T23:24:56;99839.22;;;15.61;88.92
71361;BME280;59166;48.908;1.870;2022-10-31T23:29:57;99856.56;;;15.52;86.89
71361;BME280;59166;48.908;1.870;2022-10-31T23:35:00;99865.97;;;15.46;85.55
71361;BME280;59166;48.908;1.870;2022-10-31T23:40:04;99867.06;;;15.31;84.19
71361;BME280;59166;48.908;1.870;2022-10-31T23:45:06;99870.91;;;15.16;84.34
71361;BME280;59166;48.908;1.870;2022-10-31T23:50:07;99894.41;;;14.93;82.88
71361;BME280;59166;48.908;1.870;2022-10-31T23:55:10;99902.22;;;14.81;81.68
